sensor_id;sensor_type;location;lat;lon;timestamp;pressure;altitude;pressure_sealevel;temperature;humidity
19831;BME280;10076;52.008;4.708;2022-12-10T00:00:53;100874.88;;;2.26;100.00
19831;BME280;10076;52.008;4.708;2022-12-10T00:03:18;100880.06;;;2.26;100.00
19831;BME280;10076;52.008;4.708;2022-12-10T00:05:43;100880.06;;;2.26;100.00
19831;BME280;10076;52.008;4.708;2022-12-10T00:08:09;100877.47;;;2.49;100.00
19831;BME280;10076;52.008;4.708;2022-12-10T00:10:38;100876.56;;;2.27;100.00
19831;BME280;10076;52.008;4.708;2022-12-10T00:13:04;100877.69;;;2.20;100.00
19831;BME280;10076;52.008;4.708;2022-12-10T00:15:29;100890.84;;;2.40;100.00
19831;BME280;10076;52.008;4.708;2022-12-10T00:17:54;100890.63;;;2.46;100.00
19831;BME280;10076;52.008;4.708;2022-12-10T00:20:20;100897.03;;;2.38;100.00
19831;BME280;10076;52.008;4.708;2022-12-10T00:22:45;100884.28;;;2.53;100.00
19831;BME280;10076;52.008;4.708;2022-12-10T00:25:10;100891.97;;;2.56;100.00
19831;BME280;10076;52.008;4.708;2022-12-10T00:27:36;100882.41;;;2.79;100.00
19831;BME280;10076;52.008;4.708;2022-12-10T00:30:01;100876.38;;;2.77;100.00
19831;BME280;10076;52.008;4.708;2022-12-10T00:32:26;100878.94;;;2.79;100.00
19831;BME280;10076;52.008;4.708;2022-12-10T00:34:52;100881.56;;;2.56;100.00
19831;BME280;10076;52.008;4.708;2022-12-10T00:37:17;100880.66;;;2.57;100.00
19831;BME280;10076;52.008;4.708;2022-12-10T00:39:42;100880.88;;;2.74;100.00
19831;BME280;10076;52.008;4.708;2022-12-10T00:42:08;100882.53;;;2.54;100.00
19831;BME280;10076;52.008;4.708;2022-12-10T00:44:33;100886.97;;;2.73;100.00
19831;BME280;10076;52.008;4.708;2022-12-10T00:46:58;100887.19;;;2.69;100.00
19831;BME280;10076;52.008;4.708;2022-12-10T00:49:23;100885.25;;;2.51;100.00
19831;BME280;10076;52.008;4.708;2022-12-10T00:51:49;100883.72;;;2.45;100.00
19831;BME280;10076;52.008;4.708;2022-12-10T00:54:14;100890.03;;;2.61;100.00
19831;BME280;10076;52.008;4.708;2022-12-10T00:56:40;100882.34;;;2.81;100.00
19831;BME280;10076;52.008;4.708;2022-12-10T00:59:06;100888.91;;;2.68;100.00
19831;BME280;10076;52.008;4.708;2022-12-10T01:01:36;100888.97;;;2.67;100.00
19831;BME280;10076;52.008;4.708;2022-12-10T01:04:07;100892.63;;;2.63;100.00
19831;BME280;10076;52.008;4.708;2022-12-10T01:06:44;100901.13;;;2.68;100.00
19831;BME280;10076;52.008;4.708;2022-12-10T01:09:12;100896.97;;;2.62;100.00
19831;BME280;10076;52.008;4.708;2022-12-10T01:11:40;100902.84;;;2.44;100.00
19831;BME280;10076;52.008;4.708;2022-12-10T01:14:07;100909.94;;;2.64;100.00
19831;BME280;10076;52.008;4.708;2022-12-10T01:16:33;100905.41;;;2.46;100.00
19831;BME280;10076;52.008;4.708;2022-12-10T01:18:58;100904.72;;;2.64;100.00
19831;BME280;10076;52.008;4.708;2022-12-10T01:21:25;100906.78;;;2.56;100.00
19831;BME280;10076;52.008;4.708;2022-12-10T01:23:52;100905.81;;;2.58;100.00
19831;BME280;10076;52.008;4.708;2022-12-10T01:26:23;100909.84;;;2.67;100.00
19831;BME280;10076;52.008;4.708;2022-12-10T01:28:50;100912.44;;;2.44;100.00
19831;BME280;10076;52.008;4.708;2022-12-10T01:31:18;100919.59;;;2.62;100.00
19831;BME280;10076;52.008;4.708;2022-12-10T01:33:45;100921.75;;;2.51;100.00
19831;BME280;10076;52.008;4.708;2022-12-10T01:36:23;100914.00;;;2.71;100.00
19831;BME280;10076;52.008;4.708;2022-12-10T01:38:49;100924.38;;;2.72;100.00
19831;BME280;10076;52.008;4.708;2022-12-10T01:41:24;100912.94;;;2.76;100.00
19831;BME280;10076;52.008;4.708;2022-12-10T01:46:29;100919.38;;;2.66;100.00
19831;BME280;10076;52.008;4.708;2022-12-10T01:48:55;100922.72;;;2.47;100.00
19831;BME280;10076;52.008;4.708;2022-12-10T01:51:22;100918.84;;;2.58;100.00
19831;BME280;10076;52.008;4.708;2022-12-10T01:53:48;100930.97;;;2.59;100.00
19831;BME280;10076;52.008;4.708;2022-12-10T01:56:16;100929.19;;;2.60;100.00
19831;BME280;10076;52.008;4.708;2022-12-10T01:58:42;100927.56;;;2.57;100.00
19831;BME280;10076;52.008;4.708;2022-12-10T02:01:13;100921.84;;;2.71;100.00
19831;BME280;10076;52.008;4.708;2022-12-10T02:03:56;100922.19;;;2.62;100.00
19831;BME280;10076;52.008;4.708;2022-12-10T02:06:28;100927.03;;;2.71;100.00
19831;BME280;10076;52.008;4.708;2022-12-10T02:14:30;100926.88;;;2.75;100.00
19831;BME280;10076;52.008;4.708;2022-12-10T02:17:05;100923.03;;;2.62;100.00
19831;BME280;10076;52.008;4.708;2022-12-10T02:22:54;100927.03;;;2.71;100.00
19831;BME280;10076;52.008;4.708;2022-12-10T02:25:26;100923.31;;;2.77;100.00
19831;BME280;10076;52.008;4.708;2022-12-10T02:28:03;100932.41;;;2.89;100.00
19831;BME280;10076;52.008;4.708;2022-12-10T02:30:31;100919.56;;;2.84;100.00
19831;BME280;10076;52.008;4.708;2022-12-10T02:33:00;100922.00;;;2.66;100.00
19831;BME280;10076;52.008;4.708;2022-12-10T02:35:30;100917.66;;;2.67;100.00
19831;BME280;10076;52.008;4.708;2022-12-10T02:38:05;100932.03;;;2.76;100.00
19831;BME280;10076;52.008;4.708;2022-12-10T02:40:34;100929.59;;;2.72;100.00
19831;BME280;10076;52.008;4.708;2022-12-10T02:43:02;100925.84;;;2.56;100.00
19831;BME280;10076;52.008;4.708;2022-12-10T02:45:29;100927.44;;;2.60;100.00
19831;BME280;10076;52.008;4.708;2022-12-10T02:47:57;100928.59;;;2.76;100.00
19831;BME280;10076;52.008;4.708;2022-12-10T02:50:24;100926.22;;;2.70;100.00
19831;BME280;10076;52.008;4.708;2022-12-10T02:52:50;100922.13;;;2.86;100.00
19831;BME280;10076;52.008;4.708;2022-12-10T02:55:17;100929.94;;;2.63;100.00
19831;BME280;10076;52.008;4.708;2022-12-10T03:01:06;100927.34;;;2.63;100.00
19831;BME280;10076;52.008;4.708;2022-12-10T03:03:43;100925.97;;;2.53;100.00
19831;BME280;10076;52.008;4.708;2022-12-10T03:06:20;100926.53;;;2.61;100.00
19831;BME280;10076;52.008;4.708;2022-12-10T03:08:59;100929.25;;;2.35;100.00
19831;BME280;10076;52.008;4.708;2022-12-10T03:11:27;100928.38;;;2.35;100.00
19831;BME280;10076;52.008;4.708;2022-12-10T03:14:15;100924.03;;;2.11;100.00
19831;BME280;10076;52.008;4.708;2022-12-10T03:16:46;100920.41;;;2.39;100.00
19831;BME280;10076;52.008;4.708;2022-12-10T03:19:17;100923.53;;;2.26;100.00
19831;BME280;10076;52.008;4.708;2022-12-10T03:21:45;100926.25;;;2.46;100.00
19831;BME280;10076;52.008;4.708;2022-12-10T03:24:12;100926.38;;;2.43;100.00
19831;BME280;10076;52.008;4.708;2022-12-10T03:26:39;100918.56;;;2.43;100.00
19831;BME280;10076;52.008;4.708;2022-12-10T03:29:09;100925.88;;;2.09;100.00
19831;BME280;10076;52.008;4.708;2022-12-10T03:31:38;100918.22;;;2.04;100.00
19831;BME280;10076;52.008;4.708;2022-12-10T03:34:05;100916.28;;;2.09;100.00
19831;BME280;10076;52.008;4.708;2022-12-10T03:36:31;100918.16;;;2.30;100.00
19831;BME280;10076;52.008;4.708;2022-12-10T03:38:57;100910.56;;;2.47;100.00
19831;BME280;10076;52.008;4.708;2022-12-10T03:41:23;100916.47;;;2.52;100.00
19831;BME280;10076;52.008;4.708;2022-12-10T03:43:56;100918.09;;;2.32;100.00
19831;BME280;10076;52.008;4.708;2022-12-10T03:46:24;100925.53;;;2.18;100.00
19831;BME280;10076;52.008;4.708;2022-12-10T03:48:51;100930.94;;;2.13;100.00
19831;BME280;10076;52.008;4.708;2022-12-10T03:51:16;100932.13;;;2.03;100.00
19831;BME280;10076;52.008;4.708;2022-12-10T03:53:42;100931.44;;;1.99;100.00
19831;BME280;10076;52.008;4.708;2022-12-10T03:56:07;100931.16;;;2.06;100.00
19831;BME280;10076;52.008;4.708;2022-12-10T03:58:32;100933.53;;;2.13;100.00
19831;BME280;10076;52.008;4.708;2022-12-10T04:00:57;100929.38;;;2.08;100.00
19831;BME280;10076;52.008;4.708;2022-12-10T04:03:23;100927.03;;;2.25;100.00
19831;BME280;10076;52.008;4.708;2022-12-10T04:05:49;100921.59;;;2.31;100.00
19831;BME280;10076;52.008;4.708;2022-12-10T04:08:14;100928.47;;;2.56;100.00
19831;BME280;10076;52.008;4.708;2022-12-10T04:10:40;100932.19;;;2.49;100.00
19831;BME280;10076;52.008;4.708;2022-12-10T04:13:05;100938.06;;;2.31;100.00
19831;BME280;10076;52.008;4.708;2022-12-10T04:15:49;100942.13;;;2.15;100.00
19831;BME280;10076;52.008;4.708;2022-12-10T04:18:33;100942.66;;;2.25;100.00
19831;BME280;10076;52.008;4.708;2022-12-10T04:20:58;100936.44;;;2.04;100.00
19831;BME280;10076;52.008;4.708;2022-12-10T04:23:42;100938.94;;;2.32;100.00
19831;BME280;10076;52.008;4.708;2022-12-10T04:26:26;100929.81;;;2.43;100.00
19831;BME280;10076;52.008;4.708;2022-12-10T04:29:10;100925.75;;;2.36;100.00
19831;BME280;10076;52.008;4.708;2022-12-10T04:31:35;100932.41;;;2.43;100.00
19831;BME280;10076;52.008;4.708;2022-12-10T04:34:01;100938.44;;;2.45;100.00
19831;BME280;10076;52.008;4.708;2022-12-10T04:36:26;100940.28;;;2.42;100.00
19831;BME280;10076;52.008;4.708;2022-12-10T04:38:51;100936.31;;;2.32;100.00
19831;BME280;10076;52.008;4.708;2022-12-10T04:41:17;100938.59;;;2.64;100.00
19831;BME280;10076;52.008;4.708;2022-12-10T04:43:42;100944.03;;;2.58;100.00
19831;BME280;10076;52.008;4.708;2022-12-10T04:46:09;100946.41;;;2.64;100.00
19831;BME280;10076;52.008;4.708;2022-12-10T04:48:34;100938.78;;;2.59;100.00
19831;BME280;10076;52.008;4.708;2022-12-10T04:51:00;100934.91;;;2.23;100.00
19831;BME280;10076;52.008;4.708;2022-12-10T04:53:25;100933.66;;;2.33;100.00
19831;BME280;10076;52.008;4.708;2022-12-10T04:55:50;100935.19;;;2.14;100.00
19831;BME280;10076;52.008;4.708;2022-12-10T04:58:16;100934.91;;;2.23;100.00
19831;BME280;10076;52.008;4.708;2022-12-10T05:00:41;100940.44;;;2.37;100.00
19831;BME280;10076;52.008;4.708;2022-12-10T05:03:06;100944.66;;;2.41;100.00
19831;BME280;10076;52.008;4.708;2022-12-10T05:05:34;100942.00;;;2.43;100.00
19831;BME280;10076;52.008;4.708;2022-12-10T05:07:59;100934.13;;;2.44;100.00
19831;BME280;10076;52.008;4.708;2022-12-10T05:10:24;100940.72;;;2.54;100.00
19831;BME280;10076;52.008;4.708;2022-12-10T05:12:50;100937.63;;;2.43;100.00
19831;BME280;10076;52.008;4.708;2022-12-10T05:15:15;100943.03;;;2.39;100.00
19831;BME280;10076;52.008;4.708;2022-12-10T05:17:40;100946.06;;;2.27;100.00
19831;BME280;10076;52.008;4.708;2022-12-10T05:20:06;100948.47;;;2.31;100.00
19831;BME280;10076;52.008;4.708;2022-12-10T05:22:32;100953.59;;;2.34;100.00
19831;BME280;10076;52.008;4.708;2022-12-10T05:25:16;100950.63;;;2.20;100.00
19831;BME280;10076;52.008;4.708;2022-12-10T05:27:41;100943.19;;;2.34;100.00
19831;BME280;10076;52.008;4.708;2022-12-10T05:30:07;100946.69;;;2.33;100.00
19831;BME280;10076;52.008;4.708;2022-12-10T05:32:34;100941.81;;;2.24;100.00
19831;BME280;10076;52.008;4.708;2022-12-10T05:34:59;100939.00;;;2.30;100.00
19831;BME280;10076;52.008;4.708;2022-12-10T05:37:24;100943.00;;;2.14;100.00
19831;BME280;10076;52.008;4.708;2022-12-10T05:39:50;100933.75;;;2.55;100.00
19831;BME280;10076;52.008;4.708;2022-12-10T05:42:15;100942.38;;;2.32;100.00
19831;BME280;10076;52.008;4.708;2022-12-10T05:44:40;100941.22;;;2.16;100.00
19831;BME280;10076;52.008;4.708;2022-12-10T05:47:06;100944.13;;;2.32;100.00
19831;BME280;10076;52.008;4.708;2022-12-10T05:49:31;100940.94;;;2.24;100.00
19831;BME280;10076;52.008;4.708;2022-12-10T05:51:56;100935.63;;;2.27;100.00
19831;BME280;10076;52.008;4.708;2022-12-10T05:54:21;100941.81;;;2.24;100.00
19831;BME280;10076;52.008;4.708;2022-12-10T05:56:47;100943.06;;;2.13;100.00
19831;BME280;10076;52.008;4.708;2022-12-10T05:59:12;100948.00;;;2.20;100.00
19831;BME280;10076;52.008;4.708;2022-12-10T06:01:37;100958.75;;;2.36;100.00
19831;BME280;10076;52.008;4.708;2022-12-10T06:04:04;100954.22;;;2.65;100.00
19831;BME280;10076;52.008;4.708;2022-12-10T06:06:32;100957.91;;;2.35;100.00
19831;BME280;10076;52.008;4.708;2022-12-10T06:08:58;100954.50;;;2.33;100.00
19831;BME280;10076;52.008;4.708;2022-12-10T06:11:24;100946.56;;;2.13;100.00
19831;BME280;10076;52.008;4.708;2022-12-10T06:13:51;100955.41;;;2.32;100.00
19831;BME280;10076;52.008;4.708;2022-12-10T06:16:17;100958.25;;;2.49;100.00
19831;BME280;10076;52.008;4.708;2022-12-10T06:18:42;100966.47;;;2.39;100.00
19831;BME280;10076;52.008;4.708;2022-12-10T06:21:10;100960.94;;;2.23;100.00
19831;BME280;10076;52.008;4.708;2022-12-10T06:23:37;100961.78;;;2.24;100.00
19831;BME280;10076;52.008;4.708;2022-12-10T06:26:07;100966.03;;;2.51;100.00
19831;BME280;10076;52.008;4.708;2022-12-10T06:28:34;100972.22;;;2.48;100.00
19831;BME280;10076;52.008;4.708;2022-12-10T06:31:00;100972.38;;;2.44;100.00
19831;BME280;10076;52.008;4.708;2022-12-10T06:33:26;100967.63;;;2.55;100.00
19831;BME280;10076;52.008;4.708;2022-12-10T06:35:51;100969.59;;;2.24;100.00
19831;BME280;10076;52.008;4.708;2022-12-10T06:38:17;100971.25;;;2.26;100.00
19831;BME280;10076;52.008;4.708;2022-12-10T06:40:42;100971.41;;;2.46;100.00
19831;BME280;10076;52.008;4.708;2022-12-10T06:43:07;100978.41;;;2.44;100.00
19831;BME280;10076;52.008;4.708;2022-12-10T06:45:33;100972.09;;;2.27;100.00
19831;BME280;10076;52.008;4.708;2022-12-10T06:47:58;100970.19;;;2.32;100.00
19831;BME280;10076;52.008;4.708;2022-12-10T06:50:23;100973.16;;;2.21;100.00
19831;BME280;10076;52.008;4.708;2022-12-10T06:52:50;100980.41;;;2.38;100.00
19831;BME280;10076;52.008;4.708;2022-12-10T06:55:16;100972.88;;;2.29;100.00
19831;BME280;10076;52.008;4.708;2022-12-10T06:57:41;100981.00;;;2.44;100.00
19831;BME280;10076;52.008;4.708;2022-12-10T07:00:08;100984.09;;;2.55;100.00
19831;BME280;10076;52.008;4.708;2022-12-10T07:02:33;100991.34;;;2.47;100.00
19831;BME280;10076;52.008;4.708;2022-12-10T07:04:59;100990.44;;;2.48;100.00
19831;BME280;10076;52.008;4.708;2022-12-10T07:07:25;100994.72;;;2.49;100.00
19831;BME280;10076;52.008;4.708;2022-12-10T07:09:50;100997.25;;;2.52;100.00
19831;BME280;10076;52.008;4.708;2022-12-10T07:12:15;100993.06;;;2.48;100.00
19831;BME280;10076;52.008;4.708;2022-12-10T07:14:41;101002.00;;;2.40;100.00
19831;BME280;10076;52.008;4.708;2022-12-10T07:17:06;101003.69;;;2.42;100.00
19831;BME280;10076;52.008;4.708;2022-12-10T07:19:31;101004.31;;;2.49;100.00
19831;BME280;10076;52.008;4.708;2022-12-10T07:21:57;101002.19;;;2.35;100.00
19831;BME280;10076;52.008;4.708;2022-12-10T07:24:22;101002.13;;;2.37;100.00
19831;BME280;10076;52.008;4.708;2022-12-10T07:26:47;101003.25;;;2.30;100.00
19831;BME280;10076;52.008;4.708;2022-12-10T07:29:19;101005.75;;;2.33;100.00
19831;BME280;10076;52.008;4.708;2022-12-10T07:31:45;101002.75;;;2.19;100.00
19831;BME280;10076;52.008;4.708;2022-12-10T07:34:11;101003.66;;;2.18;100.00
19831;BME280;10076;52.008;4.708;2022-12-10T07:36:37;101011.88;;;2.32;100.00
19831;BME280;10076;52.008;4.708;2022-12-10T07:39:08;101008.03;;;2.17;100.00
19831;BME280;10076;52.008;4.708;2022-12-10T07:41:34;101008.13;;;2.14;100.00
19831;BME280;10076;52.008;4.708;2022-12-10T07:44:01;101007.50;;;2.32;100.00
19831;BME280;10076;52.008;4.708;2022-12-10T07:46:30;101015.97;;;2.39;100.00
19831;BME280;10076;52.008;4.708;2022-12-10T07:48:59;101018.31;;;2.46;100.00
19831;BME280;10076;52.008;4.708;2022-12-10T07:51:24;101016.94;;;2.35;100.00
19831;BME280;10076;52.008;4.708;2022-12-10T07:53:53;101011.06;;;2.30;100.00
19831;BME280;10076;52.008;4.708;2022-12-10T07:56:19;101022.50;;;2.26;100.00
19831;BME280;10076;52.008;4.708;2022-12-10T07:58:46;101025.47;;;2.40;100.00
19831;BME280;10076;52.008;4.708;2022-12-10T08:01:14;101018.13;;;2.26;100.00
19831;BME280;10076;52.008;4.708;2022-12-10T08:03:40;101022.28;;;2.32;100.00
19831;BME280;10076;52.008;4.708;2022-12-10T08:06:09;101022.66;;;2.46;100.00
19831;BME280;10076;52.008;4.708;2022-12-10T08:08:35;101027.16;;;2.41;100.00
19831;BME280;10076;52.008;4.708;2022-12-10T08:11:02;101025.25;;;2.21;100.00
19831;BME280;10076;52.008;4.708;2022-12-10T08:13:28;101030.66;;;2.40;100.00
19831;BME280;10076;52.008;4.708;2022-12-10T08:15:54;101021.25;;;2.11;100.00
19831;BME280;10076;52.008;4.708;2022-12-10T08:18:20;101044.28;;;2.23;100.00
19831;BME280;10076;52.008;4.708;2022-12-10T08:20:46;101047.38;;;2.34;100.00
19831;BME280;10076;52.008;4.708;2022-12-10T08:23:11;101040.59;;;2.29;100.00
19831;BME280;10076;52.008;4.708;2022-12-10T08:25:37;101046.69;;;2.29;100.00
19831;BME280;10076;52.008;4.708;2022-12-10T08:28:02;101049.84;;;2.13;100.00
19831;BME280;10076;52.008;4.708;2022-12-10T08:30:29;101051.47;;;2.41;100.00
19831;BME280;10076;52.008;4.708;2022-12-10T08:32:54;101056.84;;;2.37;100.00
19831;BME280;10076;52.008;4.708;2022-12-10T08:35:20;101059.16;;;2.20;100.00
19831;BME280;10076;52.008;4.708;2022-12-10T08:37:45;101059.56;;;2.34;100.00
19831;BME280;10076;52.008;4.708;2022-12-10T08:40:10;101065.00;;;2.26;100.00
19831;BME280;10076;52.008;4.708;2022-12-10T08:42:36;101057.69;;;2.37;100.00
19831;BME280;10076;52.008;4.708;2022-12-10T08:45:01;101062.88;;;2.39;100.00
19831;BME280;10076;52.008;4.708;2022-12-10T08:47:27;101058.28;;;2.45;100.00
19831;BME280;10076;52.008;4.708;2022-12-10T08:49:52;101054.09;;;2.15;100.00
19831;BME280;10076;52.008;4.708;2022-12-10T08:52:23;101066.50;;;2.33;100.00
19831;BME280;10076;52.008;4.708;2022-12-10T08:55:00;101060.69;;;2.25;100.00
19831;BME280;10076;52.008;4.708;2022-12-10T08:57:25;101068.31;;;2.31;100.00
19831;BME280;10076;52.008;4.708;2022-12-10T08:59:50;101070.06;;;2.57;100.00
19831;BME280;10076;52.008;4.708;2022-12-10T09:02:16;101070.69;;;2.63;100.00
19831;BME280;10076;52.008;4.708;2022-12-10T09:04:41;101071.25;;;2.47;100.00
19831;BME280;10076;52.008;4.708;2022-12-10T09:07:07;101067.75;;;2.48;100.00
19831;BME280;10076;52.008;4.708;2022-12-10T09:09:33;101071.50;;;2.39;100.00
19831;BME280;10076;52.008;4.708;2022-12-10T09:11:58;101077.94;;;2.29;100.00
19831;BME280;10076;52.008;4.708;2022-12-10T09:14:23;101077.25;;;2.24;100.00
19831;BME280;10076;52.008;4.708;2022-12-10T09:16:49;101074.84;;;2.18;100.00
19831;BME280;10076;52.008;4.708;2022-12-10T09:19:14;101076.09;;;2.33;100.00
19831;BME280;10076;52.008;4.708;2022-12-10T09:21:40;101071.94;;;2.52;100.00
19831;BME280;10076;52.008;4.708;2022-12-10T09:24:05;101081.03;;;2.40;100.00
19831;BME280;10076;52.008;4.708;2022-12-10T09:26:31;101083.91;;;2.33;100.00
19831;BME280;10076;52.008;4.708;2022-12-10T09:28:56;101075.97;;;2.36;100.00
19831;BME280;10076;52.008;4.708;2022-12-10T09:31:23;101083.66;;;2.40;100.00
19831;BME280;10076;52.008;4.708;2022-12-10T09:33:49;101092.63;;;2.56;100.00
19831;BME280;10076;52.008;4.708;2022-12-10T09:36:16;101096.94;;;2.33;100.00
19831;BME280;10076;52.008;4.708;2022-12-10T09:38:43;101100.28;;;2.10;100.00
19831;BME280;10076;52.008;4.708;2022-12-10T09:46:56;101102.22;;;2.30;100.00
19831;BME280;10076;52.008;4.708;2022-12-10T09:49:53;101105.94;;;2.23;100.00
19831;BME280;10076;52.008;4.708;2022-12-10T09:52:27;101105.34;;;2.15;100.00
19831;BME280;10076;52.008;4.708;2022-12-10T09:55:19;101100.53;;;2.29;100.00
19831;BME280;10076;52.008;4.708;2022-12-10T09:57:48;101105.38;;;2.39;100.00
19831;BME280;10076;52.008;4.708;2022-12-10T10:00:29;101114.66;;;2.48;100.00
19831;BME280;10076;52.008;4.708;2022-12-10T10:02:57;101120.53;;;2.54;100.00
19831;BME280;10076;52.008;4.708;2022-12-10T10:05:39;101111.84;;;2.78;100.00
19831;BME280;10076;52.008;4.708;2022-12-10T10:08:13;101116.25;;;2.52;100.00
19831;BME280;10076;52.008;4.708;2022-12-10T10:10:41;101115.63;;;2.70;100.00
19831;BME280;10076;52.008;4.708;2022-12-10T10:15:35;101104.84;;;2.56;100.00
19831;BME280;10076;52.008;4.708;2022-12-10T10:20:34;101109.03;;;2.60;100.00
19831;BME280;10076;52.008;4.708;2022-12-10T10:23:00;101107.44;;;2.80;100.00
19831;BME280;10076;52.008;4.708;2022-12-10T10:25:26;101116.50;;;2.70;100.00
19831;BME280;10076;52.008;4.708;2022-12-10T10:27:54;101116.28;;;2.50;100.00
19831;BME280;10076;52.008;4.708;2022-12-10T10:30:21;101105.38;;;2.65;100.00
19831;BME280;10076;52.008;4.708;2022-12-10T10:32:57;101114.63;;;2.73;100.00
19831;BME280;10076;52.008;4.708;2022-12-10T10:35:30;101121.72;;;2.44;100.00
19831;BME280;10076;52.008;4.708;2022-12-10T10:37:58;101118.44;;;2.64;100.00
19831;BME280;10076;52.008;4.708;2022-12-10T10:43:01;101112.22;;;2.68;100.00
19831;BME280;10076;52.008;4.708;2022-12-10T10:45:41;101113.97;;;2.67;100.00
19831;BME280;10076;52.008;4.708;2022-12-10T10:48:14;101112.53;;;2.59;100.00
19831;BME280;10076;52.008;4.708;2022-12-10T10:53:45;101120.28;;;2.60;100.00
19831;BME280;10076;52.008;4.708;2022-12-10T10:56:15;101115.25;;;2.56;100.00
19831;BME280;10076;52.008;4.708;2022-12-10T10:59:06;101107.91;;;2.91;100.00
19831;BME280;10076;52.008;4.708;2022-12-10T11:01:50;101112.59;;;3.06;100.00
19831;BME280;10076;52.008;4.708;2022-12-10T11:04:23;101104.28;;;2.71;100.00
19831;BME280;10076;52.008;4.708;2022-12-10T11:06:50;101105.84;;;2.76;100.00
19831;BME280;10076;52.008;4.708;2022-12-10T11:09:25;101113.56;;;2.79;100.00
19831;BME280;10076;52.008;4.708;2022-12-10T11:11:58;101118.69;;;2.80;100.00
19831;BME280;10076;52.008;4.708;2022-12-10T11:14:40;101115.06;;;2.60;100.00
19831;BME280;10076;52.008;4.708;2022-12-10T11:19:33;101115.31;;;2.54;100.00
19831;BME280;10076;52.008;4.708;2022-12-10T11:22:16;101109.72;;;2.65;100.00
19831;BME280;10076;52.008;4.708;2022-12-10T11:24:41;101109.97;;;2.81;100.00
19831;BME280;10076;52.008;4.708;2022-12-10T11:27:13;101113.28;;;2.86;100.00
19831;BME280;10076;52.008;4.708;2022-12-10T11:29:51;101110.47;;;2.68;100.00
19831;BME280;10076;52.008;4.708;2022-12-10T11:35:58;101110.50;;;2.91;100.00
19831;BME280;10076;52.008;4.708;2022-12-10T11:39:02;101111.19;;;2.96;100.00
19831;BME280;10076;52.008;4.708;2022-12-10T11:47:18;101115.47;;;2.74;100.00
19831;BME280;10076;52.008;4.708;2022-12-10T12:00:39;101103.59;;;2.90;100.00
19831;BME280;10076;52.008;4.708;2022-12-10T12:13:59;101103.00;;;3.06;100.00
19831;BME280;10076;52.008;4.708;2022-12-10T12:17:03;101106.13;;;3.16;100.00
19831;BME280;10076;52.008;4.708;2022-12-10T12:19:37;101101.41;;;2.78;100.00
19831;BME280;10076;52.008;4.708;2022-12-10T12:22:33;101108.72;;;2.93;100.00
19831;BME280;10076;52.008;4.708;2022-12-10T12:25:15;101099.22;;;3.15;100.00
19831;BME280;10076;52.008;4.708;2022-12-10T12:27:46;101100.78;;;3.19;100.00
19831;BME280;10076;52.008;4.708;2022-12-10T12:30:16;101098.41;;;3.13;100.00
19831;BME280;10076;52.008;4.708;2022-12-10T12:38:01;101091.66;;;3.07;100.00
19831;BME280;10076;52.008;4.708;2022-12-10T12:40:34;101094.69;;;3.20;100.00
19831;BME280;10076;52.008;4.708;2022-12-10T12:43:04;101093.84;;;3.19;100.00
19831;BME280;10076;52.008;4.708;2022-12-10T12:45:45;101087.41;;;3.05;100.00
19831;BME280;10076;52.008;4.708;2022-12-10T12:48:37;101080.56;;;3.02;100.00
19831;BME280;10076;52.008;4.708;2022-12-10T12:53:38;101095.69;;;2.93;100.00
19831;BME280;10076;52.008;4.708;2022-12-10T13:01:49;101100.69;;;2.99;100.00
19831;BME280;10076;52.008;4.708;2022-12-10T13:04:16;101100.91;;;2.93;100.00
19831;BME280;10076;52.008;4.708;2022-12-10T13:07:09;101107.84;;;2.92;100.00
19831;BME280;10076;52.008;4.708;2022-12-10T13:09:46;101108.25;;;2.82;100.00
19831;BME280;10076;52.008;4.708;2022-12-10T13:15:38;101121.19;;;3.08;100.00
19831;BME280;10076;52.008;4.708;2022-12-10T13:20:41;101130.59;;;3.13;100.00
19831;BME280;10076;52.008;4.708;2022-12-10T13:34:10;101129.91;;;3.31;100.00
19831;BME280;10076;52.008;4.708;2022-12-10T13:39:19;101137.47;;;3.39;100.00
19831;BME280;10076;52.008;4.708;2022-12-10T13:47:48;101126.97;;;3.40;100.00
19831;BME280;10076;52.008;4.708;2022-12-10T13:50:20;101133.59;;;3.26;100.00
19831;BME280;10076;52.008;4.708;2022-12-10T13:55:38;101125.09;;;3.43;100.00
19831;BME280;10076;52.008;4.708;2022-12-10T13:58:37;101129.47;;;3.20;100.00
19831;BME280;10076;52.008;4.708;2022-12-10T14:01:41;101131.72;;;3.29;100.00
19831;BME280;10076;52.008;4.708;2022-12-10T14:06:55;101132.72;;;3.02;100.00
19831;BME280;10076;52.008;4.708;2022-12-10T14:09:27;101127.22;;;3.10;100.00
19831;BME280;10076;52.008;4.708;2022-12-10T14:11:59;101128.72;;;3.17;100.00
19831;BME280;10076;52.008;4.708;2022-12-10T14:14:42;101127.69;;;3.21;100.00
19831;BME280;10076;52.008;4.708;2022-12-10T14:17:14;101126.31;;;3.11;100.00
19831;BME280;10076;52.008;4.708;2022-12-10T14:19:41;101120.38;;;3.07;100.00
19831;BME280;10076;52.008;4.708;2022-12-10T14:22:15;101118.28;;;3.40;100.00
19831;BME280;10076;52.008;4.708;2022-12-10T14:24:41;101125.22;;;3.41;100.00
19831;BME280;10076;52.008;4.708;2022-12-10T14:27:15;101128.72;;;3.17;100.00
19831;BME280;10076;52.008;4.708;2022-12-10T14:29:48;101135.53;;;3.43;100.00
19831;BME280;10076;52.008;4.708;2022-12-10T14:32:17;101133.03;;;3.41;100.00
19831;BME280;10076;52.008;4.708;2022-12-10T14:34:52;101122.63;;;3.16;100.00
19831;BME280;10076;52.008;4.708;2022-12-10T14:37:22;101119.28;;;3.13;100.00
19831;BME280;10076;52.008;4.708;2022-12-10T14:39:49;101120.59;;;3.24;100.00
19831;BME280;10076;52.008;4.708;2022-12-10T14:42:15;101121.09;;;3.11;100.00
19831;BME280;10076;52.008;4.708;2022-12-10T14:44:42;101125.22;;;3.18;100.00
19831;BME280;10076;52.008;4.708;2022-12-10T14:47:15;101130.91;;;3.27;100.00
19831;BME280;10076;52.008;4.708;2022-12-10T14:49:46;101142.28;;;3.49;100.00